sensor_id;sensor_type;location;lat;lon;timestamp;pressure;altitude;pressure_sealevel;temperature;humidity
64967;BME280;51710;38.732;-121.358;2024-02-14T00:01:12;101100.59;;;16.97;56.15
64967;BME280;51710;38.732;-121.358;2024-02-14T00:03:38;101099.78;;;16.96;55.97
64967;BME280;51710;38.732;-121.358;2024-02-14T00:06:05;101098.75;;;16.97;55.44
64967;BME280;51710;38.732;-121.358;2024-02-14T00:08:32;101093.94;;;16.93;55.33
64967;BME280;51710;38.732;-121.358;2024-02-14T00:10:58;101096.19;;;16.89;54.92
64967;BME280;51710;38.732;-121.358;2024-02-14T00:13:25;101097.97;;;16.82;55.55
64967;BME280;51710;38.732;-121.358;2024-02-14T00:15:51;101093.13;;;16.77;55.59
64967;BME280;51710;38.732;-121.358;2024-02-14T00:18:18;101097.38;;;16.72;55.61
64967;BME280;51710;38.732;-121.358;2024-02-14T00:20:45;101091.28;;;16.63;55.52
64967;BME280;51710;38.732;-121.358;2024-02-14T00:23:11;101087.22;;;16.53;55.62
64967;BME280;51710;38.732;-121.358;2024-02-14T00:25:37;101096.56;;;16.42;55.58
64967;BME280;51710;38.732;-121.358;2024-02-14T00:28:04;101090.91;;;16.23;55.97
64967;BME280;51710;38.732;-121.358;2024-02-14T00:30:31;101086.63;;;16.14;56.80
64967;BME280;51710;38.732;-121.358;2024-02-14T00:32:58;101091.72;;;16.09;56.62
64967;BME280;51710;38.732;-121.358;2024-02-14T00:35:24;101100.03;;;15.99;56.51
64967;BME280;51710;38.732;-121.358;2024-02-14T00:37:50;101094.94;;;15.90;57.20
64967;BME280;51710;38.732;-121.358;2024-02-14T00:40:17;101099.84;;;15.86;58.00
64967;BME280;51710;38.732;-121.358;2024-02-14T00:42:44;101097.69;;;15.82;58.11
64967;BME280;51710;38.732;-121.358;2024-02-14T00:45:10;101095.09;;;15.73;58.41
64967;BME280;51710;38.732;-121.358;2024-02-14T00:47:36;101089.44;;;15.68;58.51
64967;BME280;51710;38.732;-121.358;2024-02-14T00:50:03;101082.94;;;15.63;58.41
64967;BME280;51710;38.732;-121.358;2024-02-14T00:52:29;101080.81;;;15.58;59.04
64967;BME280;51710;38.732;-121.358;2024-02-14T00:54:56;101086.50;;;15.55;58.87
64967;BME280;51710;38.732;-121.358;2024-02-14T00:57:23;101085.56;;;15.48;58.97
64967;BME280;51710;38.732;-121.358;2024-02-14T00:59:54;101097.38;;;15.39;59.18
64967;BME280;51710;38.732;-121.358;2024-02-14T01:02:22;101094.72;;;15.31;59.45
64967;BME280;51710;38.732;-121.358;2024-02-14T01:04:48;101092.75;;;15.25;59.43
64967;BME280;51710;38.732;-121.358;2024-02-14T01:07:15;101087.44;;;15.17;59.32
64967;BME280;51710;38.732;-121.358;2024-02-14T01:09:41;101085.13;;;15.14;59.39
64967;BME280;51710;38.732;-121.358;2024-02-14T01:12:07;101087.50;;;15.09;59.22
64967;BME280;51710;38.732;-121.358;2024-02-14T01:14:33;101092.22;;;15.07;59.81
64967;BME280;51710;38.732;-121.358;2024-02-14T01:17:00;101101.59;;;15.03;59.89
64967;BME280;51710;38.732;-121.358;2024-02-14T01:19:26;101101.50;;;14.97;59.94
64967;BME280;51710;38.732;-121.358;2024-02-14T01:21:55;101114.09;;;14.88;59.83
64967;BME280;51710;38.732;-121.358;2024-02-14T01:24:23;101109.97;;;14.78;60.21
64967;BME280;51710;38.732;-121.358;2024-02-14T01:26:53;101115.03;;;14.73;60.50
64967;BME280;51710;38.732;-121.358;2024-02-14T01:29:20;101103.31;;;14.65;60.74
64967;BME280;51710;38.732;-121.358;2024-02-14T01:31:46;101104.19;;;14.58;61.02
64967;BME280;51710;38.732;-121.358;2024-02-14T01:34:13;101104.22;;;14.50;60.95
64967;BME280;51710;38.732;-121.358;2024-02-14T01:36:39;101106.09;;;14.41;61.38
64967;BME280;51710;38.732;-121.358;2024-02-14T01:39:07;101113.81;;;14.36;61.64
64967;BME280;51710;38.732;-121.358;2024-02-14T01:41:54;101115.00;;;14.34;61.86
64967;BME280;51710;38.732;-121.358;2024-02-14T01:44:20;101113.31;;;14.33;61.75
64967;BME280;51710;38.732;-121.358;2024-02-14T01:46:47;101108.97;;;14.32;61.92
64967;BME280;51710;38.732;-121.358;2024-02-14T01:49:15;101112.34;;;14.26;62.16
64967;BME280;51710;38.732;-121.358;2024-02-14T01:51:43;101117.50;;;14.19;62.63
64967;BME280;51710;38.732;-121.358;2024-02-14T01:54:12;101109.97;;;14.15;62.82
64967;BME280;51710;38.732;-121.358;2024-02-14T01:56:39;101118.38;;;14.12;62.57
64967;BME280;51710;38.732;-121.358;2024-02-14T01:59:07;101125.06;;;13.92;62.63
64967;BME280;51710;38.732;-121.358;2024-02-14T02:01:34;101129.44;;;13.77;62.68
64967;BME280;51710;38.732;-121.358;2024-02-14T02:04:01;101124.41;;;13.66;63.08
64967;BME280;51710;38.732;-121.358;2024-02-14T02:06:28;101132.44;;;13.57;63.40
64967;BME280;51710;38.732;-121.358;2024-02-14T02:08:54;101132.28;;;13.51;63.39
64967;BME280;51710;38.732;-121.358;2024-02-14T02:11:21;101132.09;;;13.44;64.08
64967;BME280;51710;38.732;-121.358;2024-02-14T02:13:48;101129.41;;;13.36;64.00
64967;BME280;51710;38.732;-121.358;2024-02-14T02:16:14;101133.06;;;13.19;64.48
64967;BME280;51710;38.732;-121.358;2024-02-14T02:18:40;101135.69;;;13.03;64.86
64967;BME280;51710;38.732;-121.358;2024-02-14T02:21:07;101142.47;;;12.90;64.86
64967;BME280;51710;38.732;-121.358;2024-02-14T02:23:34;101140.59;;;12.82;65.44
64967;BME280;51710;38.732;-121.358;2024-02-14T02:26:01;101144.75;;;12.77;65.60
64967;BME280;51710;38.732;-121.358;2024-02-14T02:28:27;101144.72;;;12.69;65.66
64967;BME280;51710;38.732;-121.358;2024-02-14T02:30:54;101143.50;;;12.55;66.00
64967;BME280;51710;38.732;-121.358;2024-02-14T02:33:22;101136.38;;;12.38;66.13
64967;BME280;51710;38.732;-121.358;2024-02-14T02:35:48;101141.31;;;12.25;66.79
64967;BME280;51710;38.732;-121.358;2024-02-14T02:38:16;101138.53;;;12.09;66.98
64967;BME280;51710;38.732;-121.358;2024-02-14T02:40:43;101143.75;;;11.93;67.45
64967;BME280;51710;38.732;-121.358;2024-02-14T02:43:10;101143.53;;;11.86;67.93
64967;BME280;51710;38.732;-121.358;2024-02-14T02:45:36;101151.03;;;11.83;68.20
64967;BME280;51710;38.732;-121.358;2024-02-14T02:48:03;101145.31;;;11.78;68.28
64967;BME280;51710;38.732;-121.358;2024-02-14T02:50:29;101153.31;;;11.78;69.00
64967;BME280;51710;38.732;-121.358;2024-02-14T02:52:56;101154.97;;;11.79;68.94
64967;BME280;51710;38.732;-121.358;2024-02-14T02:55:22;101153.31;;;11.78;68.89
64967;BME280;51710;38.732;-121.358;2024-02-14T02:57:49;101152.78;;;11.74;68.92
64967;BME280;51710;38.732;-121.358;2024-02-14T03:00:16;101152.41;;;11.69;69.26
64967;BME280;51710;38.732;-121.358;2024-02-14T03:02:43;101145.53;;;11.67;69.02
64967;BME280;51710;38.732;-121.358;2024-02-14T03:05:12;101149.50;;;11.63;69.32
64967;BME280;51710;38.732;-121.358;2024-02-14T03:07:44;101155.75;;;11.54;69.67
64967;BME280;51710;38.732;-121.358;2024-02-14T03:10:11;101146.69;;;11.47;69.21
64967;BME280;51710;38.732;-121.358;2024-02-14T03:12:46;101154.75;;;11.37;70.08
64967;BME280;51710;38.732;-121.358;2024-02-14T03:15:13;101157.34;;;11.29;69.87
64967;BME280;51710;38.732;-121.358;2024-02-14T03:17:39;101144.31;;;11.26;70.66
64967;BME280;51710;38.732;-121.358;2024-02-14T03:20:06;101146.13;;;11.25;70.77
64967;BME280;51710;38.732;-121.358;2024-02-14T03:22:45;101152.31;;;11.26;70.72
64967;BME280;51710;38.732;-121.358;2024-02-14T03:25:19;101155.09;;;11.24;70.94
64967;BME280;51710;38.732;-121.358;2024-02-14T03:27:47;101161.28;;;11.25;71.12
64967;BME280;51710;38.732;-121.358;2024-02-14T03:30:15;101150.47;;;11.26;71.20
64967;BME280;51710;38.732;-121.358;2024-02-14T03:32:43;101156.81;;;11.25;70.98
64967;BME280;51710;38.732;-121.358;2024-02-14T03:35:09;101164.72;;;11.17;70.89
64967;BME280;51710;38.732;-121.358;2024-02-14T03:37:37;101166.44;;;11.09;71.27
64967;BME280;51710;38.732;-121.358;2024-02-14T03:40:05;101173.66;;;10.99;71.34
64967;BME280;51710;38.732;-121.358;2024-02-14T03:42:34;101168.66;;;10.86;71.60
64967;BME280;51710;38.732;-121.358;2024-02-14T03:45:00;101172.91;;;10.79;71.89
64967;BME280;51710;38.732;-121.358;2024-02-14T03:47:34;101175.72;;;10.78;72.34
64967;BME280;51710;38.732;-121.358;2024-02-14T03:50:01;101175.56;;;10.79;72.40
64967;BME280;51710;38.732;-121.358;2024-02-14T03:52:30;101166.22;;;10.75;72.57
64967;BME280;51710;38.732;-121.358;2024-02-14T03:55:02;101174.78;;;10.69;72.49
64967;BME280;51710;38.732;-121.358;2024-02-14T03:57:29;101174.84;;;10.60;72.65
64967;BME280;51710;38.732;-121.358;2024-02-14T03:59:56;101181.19;;;10.49;72.40
64967;BME280;51710;38.732;-121.358;2024-02-14T04:02:23;101179.38;;;10.40;72.69
64967;BME280;51710;38.732;-121.358;2024-02-14T04:04:49;101179.69;;;10.28;72.97
64967;BME280;51710;38.732;-121.358;2024-02-14T04:07:16;101184.91;;;10.19;73.30
64967;BME280;51710;38.732;-121.358;2024-02-14T04:09:42;101185.63;;;10.12;73.68
64967;BME280;51710;38.732;-121.358;2024-02-14T04:12:08;101188.56;;;10.09;74.15
64967;BME280;51710;38.732;-121.358;2024-02-14T04:14:36;101185.91;;;10.09;74.48
64967;BME280;51710;38.732;-121.358;2024-02-14T04:17:04;101190.94;;;10.12;74.59
64967;BME280;51710;38.732;-121.358;2024-02-14T04:19:33;101189.53;;;10.17;74.84
64967;BME280;51710;38.732;-121.358;2024-02-14T04:22:00;101186.16;;;10.25;75.03
64967;BME280;51710;38.732;-121.358;2024-02-14T04:24:26;101194.41;;;10.32;74.98
64967;BME280;51710;38.732;-121.358;2024-02-14T04:26:55;101206.00;;;10.31;74.14
64967;BME280;51710;38.732;-121.358;2024-02-14T04:29:22;101206.91;;;10.22;74.53
64967;BME280;51710;38.732;-121.358;2024-02-14T04:31:49;101205.50;;;10.17;74.90
64967;BME280;51710;38.732;-121.358;2024-02-14T04:34:15;101197.66;;;10.16;75.29
64967;BME280;51710;38.732;-121.358;2024-02-14T04:36:42;101198.47;;;10.16;74.83
64967;BME280;51710;38.732;-121.358;2024-02-14T04:39:08;101199.63;;;10.14;74.96
64967;BME280;51710;38.732;-121.358;2024-02-14T04:41:35;101202.56;;;10.11;74.98
64967;BME280;51710;38.732;-121.358;2024-02-14T04:44:05;101203.38;;;10.11;74.95
64967;BME280;51710;38.732;-121.358;2024-02-14T04:46:35;101199.91;;;10.11;75.22
64967;BME280;51710;38.732;-121.358;2024-02-14T04:49:05;101200.88;;;10.10;75.32
64967;BME280;51710;38.732;-121.358;2024-02-14T04:51:31;101206.91;;;10.12;75.57
64967;BME280;51710;38.732;-121.358;2024-02-14T04:53:58;101211.94;;;10.15;75.44
64967;BME280;51710;38.732;-121.358;2024-02-14T04:56:28;101207.91;;;10.11;75.30
64967;BME280;51710;38.732;-121.358;2024-02-14T04:58:54;101211.06;;;10.05;75.32
64967;BME280;51710;38.732;-121.358;2024-02-14T05:01:21;101205.06;;;10.03;75.74
64967;BME280;51710;38.732;-121.358;2024-02-14T05:03:47;101208.97;;;9.99;75.11
64967;BME280;51710;38.732;-121.358;2024-02-14T05:06:14;101213.31;;;9.90;75.48
64967;BME280;51710;38.732;-121.358;2024-02-14T05:08:40;101223.97;;;9.81;75.88
64967;BME280;51710;38.732;-121.358;2024-02-14T05:11:07;101217.38;;;9.75;76.16
64967;BME280;51710;38.732;-121.358;2024-02-14T05:13:33;101219.91;;;9.77;76.00
64967;BME280;51710;38.732;-121.358;2024-02-14T05:16:03;101222.03;;;9.83;76.83
64967;BME280;51710;38.732;-121.358;2024-02-14T05:18:29;101223.84;;;9.92;76.50
64967;BME280;51710;38.732;-121.358;2024-02-14T05:20:56;101218.66;;;10.00;76.80
64967;BME280;51710;38.732;-121.358;2024-02-14T05:23:22;101221.19;;;10.11;76.68
64967;BME280;51710;38.732;-121.358;2024-02-14T05:25:48;101213.34;;;10.19;76.84
64967;BME280;51710;38.732;-121.358;2024-02-14T05:28:16;101216.25;;;10.26;76.47
64967;BME280;51710;38.732;-121.358;2024-02-14T05:30:44;101210.38;;;10.32;76.63
64967;BME280;51710;38.732;-121.358;2024-02-14T05:33:11;101218.06;;;10.35;76.68
64967;BME280;51710;38.732;-121.358;2024-02-14T05:35:37;101220.28;;;10.39;76.23
64967;BME280;51710;38.732;-121.358;2024-02-14T05:38:03;101220.03;;;10.42;76.54
64967;BME280;51710;38.732;-121.358;2024-02-14T05:40:33;101227.31;;;10.40;76.27
64967;BME280;51710;38.732;-121.358;2024-02-14T05:42:59;101223.84;;;10.30;75.84
64967;BME280;51710;38.732;-121.358;2024-02-14T05:45:26;101231.66;;;10.22;76.24
64967;BME280;51710;38.732;-121.358;2024-02-14T05:47:53;101231.25;;;10.17;76.54
64967;BME280;51710;38.732;-121.358;2024-02-14T05:50:19;101232.94;;;10.08;76.62
64967;BME280;51710;38.732;-121.358;2024-02-14T05:52:45;101230.00;;;10.02;77.46
64967;BME280;51710;38.732;-121.358;2024-02-14T05:55:12;101231.09;;;9.99;77.60
64967;BME280;51710;38.732;-121.358;2024-02-14T05:57:38;101240.50;;;10.03;77.45
64967;BME280;51710;38.732;-121.358;2024-02-14T06:00:05;101242.72;;;10.08;77.71
64967;BME280;51710;38.732;-121.358;2024-02-14T06:02:32;101231.56;;;10.14;77.52
64967;BME280;51710;38.732;-121.358;2024-02-14T06:04:58;101238.28;;;10.18;77.51
64967;BME280;51710;38.732;-121.358;2024-02-14T06:07:24;101243.31;;;10.21;77.57
64967;BME280;51710;38.732;-121.358;2024-02-14T06:09:51;101244.72;;;10.25;77.58
64967;BME280;51710;38.732;-121.358;2024-02-14T06:12:17;101246.38;;;10.26;77.47
64967;BME280;51710;38.732;-121.358;2024-02-14T06:14:43;101250.72;;;10.27;77.65
64967;BME280;51710;38.732;-121.358;2024-02-14T06:17:09;101247.09;;;10.28;77.48
64967;BME280;51710;38.732;-121.358;2024-02-14T06:19:36;101241.63;;;10.30;77.23
64967;BME280;51710;38.732;-121.358;2024-02-14T06:22:04;101253.38;;;10.27;77.53
64967;BME280;51710;38.732;-121.358;2024-02-14T06:24:31;101246.81;;;10.12;76.93
64967;BME280;51710;38.732;-121.358;2024-02-14T06:26:57;101246.09;;;9.91;77.20
64967;BME280;51710;38.732;-121.358;2024-02-14T06:29:23;101233.78;;;9.71;76.91
64967;BME280;51710;38.732;-121.358;2024-02-14T06:31:49;101247.47;;;9.57;77.43
64967;BME280;51710;38.732;-121.358;2024-02-14T06:34:16;101257.69;;;9.52;77.95
64967;BME280;51710;38.732;-121.358;2024-02-14T06:36:42;101252.22;;;9.53;78.14
64967;BME280;51710;38.732;-121.358;2024-02-14T06:39:08;101253.50;;;9.59;78.03
64967;BME280;51710;38.732;-121.358;2024-02-14T06:41:35;101244.94;;;9.65;78.59
64967;BME280;51710;38.732;-121.358;2024-02-14T06:44:01;101248.75;;;9.72;78.56
64967;BME280;51710;38.732;-121.358;2024-02-14T06:46:27;101250.84;;;9.78;78.90
64967;BME280;51710;38.732;-121.358;2024-02-14T06:48:54;101248.63;;;9.83;78.83
64967;BME280;51710;38.732;-121.358;2024-02-14T06:51:21;101260.63;;;9.87;78.54
64967;BME280;51710;38.732;-121.358;2024-02-14T06:53:49;101255.88;;;9.90;78.85
64967;BME280;51710;38.732;-121.358;2024-02-14T06:56:15;101254.78;;;9.93;78.62
64967;BME280;51710;38.732;-121.358;2024-02-14T06:58:42;101253.09;;;9.92;78.25
64967;BME280;51710;38.732;-121.358;2024-02-14T07:01:08;101246.38;;;9.88;78.45
64967;BME280;51710;38.732;-121.358;2024-02-14T07:03:37;101258.97;;;9.86;78.31
64967;BME280;51710;38.732;-121.358;2024-02-14T07:06:05;101264.84;;;9.80;78.41
64967;BME280;51710;38.732;-121.358;2024-02-14T07:08:31;101253.34;;;9.70;78.16
64967;BME280;51710;38.732;-121.358;2024-02-14T07:10:57;101247.19;;;9.60;78.44
64967;BME280;51710;38.732;-121.358;2024-02-14T07:13:24;101244.09;;;9.55;77.92
64967;BME280;51710;38.732;-121.358;2024-02-14T07:15:50;101249.72;;;9.52;78.67
64967;BME280;51710;38.732;-121.358;2024-02-14T07:18:16;101252.22;;;9.53;78.69
64967;BME280;51710;38.732;-121.358;2024-02-14T07:20:42;101254.59;;;9.56;78.94
64967;BME280;51710;38.732;-121.358;2024-02-14T07:23:09;101244.38;;;9.61;78.91
64967;BME280;51710;38.732;-121.358;2024-02-14T07:25:35;101243.16;;;9.65;79.22
64967;BME280;51710;38.732;-121.358;2024-02-14T07:28:01;101242.84;;;9.68;79.02
64967;BME280;51710;38.732;-121.358;2024-02-14T07:30:27;101244.13;;;9.74;79.02
64967;BME280;51710;38.732;-121.358;2024-02-14T07:32:54;101247.22;;;9.79;79.09
64967;BME280;51710;38.732;-121.358;2024-02-14T07:35:20;101243.31;;;9.83;78.97
64967;BME280;51710;38.732;-121.358;2024-02-14T07:37:46;101251.97;;;9.85;79.02
64967;BME280;51710;38.732;-121.358;2024-02-14T07:40:14;101255.34;;;9.77;78.52
64967;BME280;51710;38.732;-121.358;2024-02-14T07:42:40;101250.56;;;9.62;78.56
64967;BME280;51710;38.732;-121.358;2024-02-14T07:45:07;101261.72;;;9.56;78.62
64967;BME280;51710;38.732;-121.358;2024-02-14T07:47:33;101260.06;;;9.55;79.05
64967;BME280;51710;38.732;-121.358;2024-02-14T07:49:59;101254.47;;;9.58;79.67
64967;BME280;51710;38.732;-121.358;2024-02-14T07:52:26;101248.59;;;9.64;79.76
64967;BME280;51710;38.732;-121.358;2024-02-14T07:54:53;101247.19;;;9.69;79.61
64967;BME280;51710;38.732;-121.358;2024-02-14T07:57:23;101252.81;;;9.76;79.64
64967;BME280;51710;38.732;-121.358;2024-02-14T07:59:51;101245.25;;;9.81;79.61
64967;BME280;51710;38.732;-121.358;2024-02-14T08:02:17;101253.66;;;9.86;79.54
64967;BME280;51710;38.732;-121.358;2024-02-14T08:04:44;101250.00;;;9.87;79.42
64967;BME280;51710;38.732;-121.358;2024-02-14T08:07:10;101252.81;;;9.85;79.48
64967;BME280;51710;38.732;-121.358;2024-02-14T08:09:38;101251.97;;;9.85;79.68
64967;BME280;51710;38.732;-121.358;2024-02-14T08:12:05;101246.38;;;9.88;79.85
64967;BME280;51710;38.732;-121.358;2024-02-14T08:14:32;101247.78;;;9.92;79.55
64967;BME280;51710;38.732;-121.358;2024-02-14T08:16:58;101249.16;;;9.96;79.53
64967;BME280;51710;38.732;-121.358;2024-02-14T08:19:24;101258.41;;;10.01;79.68
64967;BME280;51710;38.732;-121.358;2024-02-14T08:21:51;101255.19;;;10.07;79.48
64967;BME280;51710;38.732;-121.358;2024-02-14T08:24:17;101260.13;;;10.12;80.00
64967;BME280;51710;38.732;-121.358;2024-02-14T08:26:43;101258.88;;;10.16;79.82
64967;BME280;51710;38.732;-121.358;2024-02-14T08:29:10;101252.53;;;10.17;79.63
64967;BME280;51710;38.732;-121.358;2024-02-14T08:31:37;101241.91;;;10.17;79.60
64967;BME280;51710;38.732;-121.358;2024-02-14T08:34:03;101249.19;;;10.15;79.80
64967;BME280;51710;38.732;-121.358;2024-02-14T08:36:30;101250.03;;;10.15;79.76
64967;BME280;51710;38.732;-121.358;2024-02-14T08:38:56;101245.56;;;10.16;80.08
64967;BME280;51710;38.732;-121.358;2024-02-14T08:41:22;101244.72;;;10.15;79.92
64967;BME280;51710;38.732;-121.358;2024-02-14T08:43:49;101248.22;;;10.16;80.03
64967;BME280;51710;38.732;-121.358;2024-02-14T08:46:17;101248.94;;;10.18;80.34
64967;BME280;51710;38.732;-121.358;2024-02-14T08:48:44;101236.28;;;10.20;79.96
64967;BME280;51710;38.732;-121.358;2024-02-14T08:51:14;101244.97;;;10.22;80.14
64967;BME280;51710;38.732;-121.358;2024-02-14T08:53:40;101244.81;;;10.23;80.04
64967;BME280;51710;38.732;-121.358;2024-02-14T08:56:10;101248.03;;;10.27;80.18
64967;BME280;51710;38.732;-121.358;2024-02-14T08:58:36;101251.41;;;10.29;80.21
64967;BME280;51710;38.732;-121.358;2024-02-14T09:01:03;101254.78;;;10.31;80.17
64967;BME280;51710;38.732;-121.358;2024-02-14T09:03:29;101240.47;;;10.32;79.83
64967;BME280;51710;38.732;-121.358;2024-02-14T09:05:57;101245.78;;;10.32;80.12
64967;BME280;51710;38.732;-121.358;2024-02-14T09:08:23;101243.97;;;10.33;79.91
64967;BME280;51710;38.732;-121.358;2024-02-14T09:10:50;101236.84;;;10.33;80.49
64967;BME280;51710;38.732;-121.358;2024-02-14T09:13:16;101243.84;;;10.34;79.80
64967;BME280;51710;38.732;-121.358;2024-02-14T09:15:43;101241.16;;;10.34;80.29
64967;BME280;51710;38.732;-121.358;2024-02-14T09:18:10;101241.88;;;10.36;80.17
64967;BME280;51710;38.732;-121.358;2024-02-14T09:20:36;101243.56;;;10.37;80.32
64967;BME280;51710;38.732;-121.358;2024-02-14T09:23:03;101241.88;;;10.36;80.02
64967;BME280;51710;38.732;-121.358;2024-02-14T09:25:29;101240.06;;;10.37;80.28
64967;BME280;51710;38.732;-121.358;2024-02-14T09:27:56;101242.56;;;10.38;80.48
64967;BME280;51710;38.732;-121.358;2024-02-14T09:30:22;101245.09;;;10.40;80.40
64967;BME280;51710;38.732;-121.358;2024-02-14T09:32:48;101250.25;;;10.41;80.75
64967;BME280;51710;38.732;-121.358;2024-02-14T09:35:16;101243.84;;;10.44;80.48
64967;BME280;51710;38.732;-121.358;2024-02-14T09:37:43;101243.69;;;10.45;81.03
64967;BME280;51710;38.732;-121.358;2024-02-14T09:40:09;101237.38;;;10.46;80.22
64967;BME280;51710;38.732;-121.358;2024-02-14T09:42:50;101241.03;;;10.45;80.84
64967;BME280;51710;38.732;-121.358;2024-02-14T09:45:19;101235.69;;;10.45;80.19
64967;BME280;51710;38.732;-121.358;2024-02-14T09:47:45;101232.19;;;10.45;80.15
64967;BME280;51710;38.732;-121.358;2024-02-14T09:50:12;101233.03;;;10.45;80.46
64967;BME280;51710;38.732;-121.358;2024-02-14T09:52:38;101232.03;;;10.46;80.73
64967;BME280;51710;38.732;-121.358;2024-02-14T09:55:06;101233.72;;;10.47;80.20
64967;BME280;51710;38.732;-121.358;2024-02-14T09:57:33;101235.41;;;10.48;80.27
64967;BME280;51710;38.732;-121.358;2024-02-14T10:00:00;101227.16;;;10.51;80.59
64967;BME280;51710;38.732;-121.358;2024-02-14T10:02:30;101231.47;;;10.52;80.76
64967;BME280;51710;38.732;-121.358;2024-02-14T10:04:57;101238.34;;;10.55;80.52
64967;BME280;51710;38.732;-121.358;2024-02-14T10:07:23;101237.34;;;10.56;80.61
64967;BME280;51710;38.732;-121.358;2024-02-14T10:09:49;101232.56;;;10.59;80.69
64967;BME280;51710;38.732;-121.358;2024-02-14T10:12:15;101236.75;;;10.62;80.78
64967;BME280;51710;38.732;-121.358;2024-02-14T10:14:46;101236.75;;;10.62;80.38
64967;BME280;51710;38.732;-121.358;2024-02-14T10:17:19;101236.75;;;10.62;80.43
64967;BME280;51710;38.732;-121.358;2024-02-14T10:19:58;101239.31;;;10.63;80.32
64967;BME280;51710;38.732;-121.358;2024-02-14T10:22:27;101235.63;;;10.64;80.25
64967;BME280;51710;38.732;-121.358;2024-02-14T10:24:58;101230.16;;;10.66;80.04
64967;BME280;51710;38.732;-121.358;2024-02-14T10:27:25;101234.53;;;10.67;80.65
64967;BME280;51710;38.732;-121.358;2024-02-14T10:29:52;101233.38;;;10.69;80.33
64967;BME280;51710;38.732;-121.358;2024-02-14T10:32:23;101226.09;;;10.71;80.54
64967;BME280;51710;38.732;-121.358;2024-02-14T10:34:50;101228.59;;;10.73;80.47
64967;BME280;51710;38.732;-121.358;2024-02-14T10:37:18;101230.28;;;10.74;80.19
64967;BME280;51710;38.732;-121.358;2024-02-14T10:39:47;101229.28;;;10.75;80.13
64967;BME280;51710;38.732;-121.358;2024-02-14T10:42:18;101238.13;;;10.75;79.98
64967;BME280;51710;38.732;-121.358;2024-02-14T10:44:45;101230.97;;;10.76;80.42
64967;BME280;51710;38.732;-121.358;2024-02-14T10:47:19;101231.81;;;10.76;80.00
64967;BME280;51710;38.732;-121.358;2024-02-14T10:49:50;101230.84;;;10.77;80.14
64967;BME280;51710;38.732;-121.358;2024-02-14T10:52:20;101233.50;;;10.77;80.70
64967;BME280;51710;38.732;-121.358;2024-02-14T10:54:54;101232.50;;;10.78;80.46
64967;BME280;51710;38.732;-121.358;2024-02-14T10:57:25;101239.38;;;10.81;80.16
64967;BME280;51710;38.732;-121.358;2024-02-14T10:59:53;101240.91;;;10.83;80.23
64967;BME280;51710;38.732;-121.358;2024-02-14T11:02:20;101235.28;;;10.86;80.14
64967;BME280;51710;38.732;-121.358;2024-02-14T11:04:47;101232.75;;;10.85;80.06
64967;BME280;51710;38.732;-121.358;2024-02-14T11:07:20;101236.28;;;10.85;80.29
64967;BME280;51710;38.732;-121.358;2024-02-14T11:09:59;101225.47;;;10.87;79.66
64967;BME280;51710;38.732;-121.358;2024-02-14T11:12:35;101230.94;;;10.85;79.71
64967;BME280;51710;38.732;-121.358;2024-02-14T11:15:08;101226.00;;;10.90;79.69
64967;BME280;51710;38.732;-121.358;2024-02-14T11:17:35;101226.31;;;10.87;79.53
64967;BME280;51710;38.732;-121.358;2024-02-14T11:20:12;101225.75;;;10.84;79.81
64967;BME280;51710;38.732;-121.358;2024-02-14T11:22:40;101227.88;;;10.80;79.56
64967;BME280;51710;38.732;-121.358;2024-02-14T11:25:16;101222.84;;;10.77;79.81
64967;BME280;51710;38.732;-121.358;2024-02-14T11:27:45;101227.47;;;10.75;79.72
64967;BME280;51710;38.732;-121.358;2024-02-14T11:30:12;101220.47;;;10.74;79.99
64967;BME280;51710;38.732;-121.358;2024-02-14T11:32:42;101218.50;;;10.76;80.10
64967;BME280;51710;38.732;-121.358;2024-02-14T11:35:11;101207.84;;;10.76;79.80
64967;BME280;51710;38.732;-121.358;2024-02-14T11:37:38;101210.50;;;10.76;80.07
64967;BME280;51710;38.732;-121.358;2024-02-14T11:40:05;101222.84;;;10.77;79.93
64967;BME280;51710;38.732;-121.358;2024-02-14T11:42:33;101216.69;;;10.77;80.01
64967;BME280;51710;38.732;-121.358;2024-02-14T11:44:59;101222.69;;;10.79;79.97
64967;BME280;51710;38.732;-121.358;2024-02-14T11:47:26;101223.53;;;10.79;80.13
64967;BME280;51710;38.732;-121.358;2024-02-14T11:49:53;101236.72;;;10.81;80.29
64967;BME280;51710;38.732;-121.358;2024-02-14T11:52:19;101234.59;;;10.84;80.03
64967;BME280;51710;38.732;-121.358;2024-02-14T11:54:48;101225.63;;;10.85;79.82
64967;BME280;51710;38.732;-121.358;2024-02-14T11:57:17;101210.31;;;10.87;79.98
64967;BME280;51710;38.732;-121.358;2024-02-14T11:59:44;101214.66;;;10.88;79.62
64967;BME280;51710;38.732;-121.358;2024-02-14T12:02:12;101215.50;;;10.89;80.38
64967;BME280;51710;38.732;-121.358;2024-02-14T12:04:39;101222.34;;;10.91;80.13
64967;BME280;51710;38.732;-121.358;2024-02-14T12:07:05;101231.03;;;10.93;80.33
64967;BME280;51710;38.732;-121.358;2024-02-14T12:09:32;101229.91;;;10.96;80.21
64967;BME280;51710;38.732;-121.358;2024-02-14T12:11:58;101232.44;;;10.97;80.08
64967;BME280;51710;38.732;-121.358;2024-02-14T12:14:24;101223.59;;;10.97;80.66
64967;BME280;51710;38.732;-121.358;2024-02-14T12:16:59;101222.78;;;10.96;80.16
64967;BME280;51710;38.732;-121.358;2024-02-14T12:19:28;101237.44;;;11.00;80.70
64967;BME280;51710;38.732;-121.358;2024-02-14T12:21:54;101233.66;;;11.03;80.65
64967;BME280;51710;38.732;-121.358;2024-02-14T12:24:27;101229.84;;;11.05;80.39